createdAt,value
2019-01-11T00:03:21.192Z,4.23
2019-01-11T00:09:16.181Z,3.6
2019-01-11T00:15:11.194Z,2.52
2019-01-11T00:21:06.196Z,2.55
2019-01-11T00:27:01.188Z,5.69
2019-01-11T00:32:56.179Z,7.52
2019-01-11T00:38:51.199Z,5.83
2019-01-11T00:44:46.206Z,8.22
2019-01-11T00:50:41.231Z,18.38
2019-01-11T00:56:36.209Z,10.37
2019-01-11T01:02:31.211Z,7.22
2019-01-11T01:08:30.472Z,7.09
2019-01-11T01:14:21.203Z,30.79
2019-01-11T01:20:16.248Z,9.15
2019-01-11T01:26:11.228Z,8.49
2019-01-11T01:32:06.241Z,5.19
2019-01-11T01:38:01.228Z,4.52
2019-01-11T01:43:56.265Z,5.41
2019-01-11T01:49:51.249Z,8.13
2019-01-11T01:55:46.216Z,9.12
2019-01-11T02:01:41.247Z,9.83
2019-01-11T02:07:36.236Z,9.2
2019-01-11T02:13:31.257Z,8.37
2019-01-11T02:19:26.282Z,6.35
2019-01-11T02:25:21.236Z,5.96
2019-01-11T02:31:16.275Z,5.81
2019-01-11T02:37:11.241Z,7.12
2019-01-11T02:43:06.270Z,9.45
2019-01-11T02:49:01.270Z,8.37
2019-01-11T02:54:56.297Z,7.35
2019-01-11T03:00:51.262Z,5.25
2019-01-11T03:06:46.272Z,4.01
2019-01-11T03:12:41.269Z,4.65
2019-01-11T03:18:36.276Z,4.94
2019-01-11T03:24:31.274Z,4.04
2019-01-11T03:30:26.347Z,4.5
2019-01-11T03:36:21.311Z,5.9
2019-01-11T03:42:16.276Z,5.2
2019-01-11T03:48:11.338Z,3.38
2019-01-11T03:54:06.388Z,3.74
2019-01-11T04:00:01.307Z,3.52
2019-01-11T04:05:56.297Z,3.55
2019-01-11T04:11:51.322Z,4.24
2019-01-11T04:17:46.305Z,4.97
2019-01-11T04:23:41.324Z,6.04
2019-01-11T04:29:36.307Z,6.42
2019-01-11T04:35:31.316Z,7.36
2019-01-11T04:41:26.333Z,10.44
2019-01-11T04:47:21.329Z,10.17
2019-01-11T04:53:16.334Z,10.46
2019-01-11T04:59:11.333Z,32.49
2019-01-11T05:05:06.312Z,30.24
2019-01-11T05:11:01.323Z,13.09
2019-01-11T05:16:56.344Z,11.03
2019-01-11T05:22:51.342Z,13.58
2019-01-11T05:28:46.337Z,16.47
2019-01-11T05:34:41.341Z,13.44
2019-01-11T05:40:36.336Z,11.17
2019-01-11T05:46:31.393Z,9.32
2019-01-11T05:52:26.366Z,8.05
2019-01-11T05:58:21.363Z,8.48
2019-01-11T06:04:16.369Z,12.5
2019-01-11T06:10:11.394Z,14.6
2019-01-11T06:16:06.401Z,15.94
2019-01-11T06:22:01.418Z,29.11
2019-01-11T06:27:56.352Z,27.13
2019-01-11T06:33:51.361Z,17.93
2019-01-11T06:39:46.355Z,38.15
2019-01-11T06:45:41.378Z,19.37
2019-01-11T06:51:36.416Z,15.56
2019-01-11T06:57:31.426Z,15.2
2019-01-11T07:03:26.389Z,15.5
2019-01-11T07:09:21.371Z,15.64
2019-01-11T07:15:16.436Z,12.7
2019-01-11T07:21:11.392Z,14.76
2019-01-11T07:27:06.418Z,15.01
2019-01-11T07:33:01.455Z,15.68
2019-01-11T07:38:56.410Z,19.66
2019-01-11T07:44:51.394Z,18.11
2019-01-11T07:50:49.346Z,18.71
2019-01-11T07:56:41.406Z,21.19
2019-01-11T08:02:36.411Z,23.15
2019-01-11T08:08:31.415Z,20.34
2019-01-11T08:14:26.426Z,26.85
2019-01-11T08:20:21.416Z,19.51
2019-01-11T08:26:16.428Z,20.85
2019-01-11T08:32:11.427Z,21.29
2019-01-11T08:38:06.510Z,20.2
2019-01-11T08:44:01.462Z,22.17
2019-01-11T08:49:56.472Z,28.25
2019-01-11T08:55:51.430Z,42.6
2019-01-11T09:01:46.437Z,51.94
2019-01-11T09:07:41.443Z,62.55
2019-01-11T09:13:36.523Z,55.34
2019-01-11T09:19:31.516Z,38.53
2019-01-11T09:25:26.464Z,16.88
2019-01-11T09:31:21.548Z,8.41
2019-01-11T09:37:16.463Z,2.97
2019-01-11T09:43:11.445Z,5.96
2019-01-11T09:49:06.470Z,2.51
2019-01-11T09:55:01.469Z,2.5
2019-01-11T10:00:59.172Z,2.78
2019-01-11T10:06:51.458Z,3.02
2019-01-11T10:12:46.477Z,3.19
2019-01-11T10:18:41.519Z,2.38
2019-01-11T10:24:36.480Z,2.49
2019-01-11T10:30:31.487Z,2.85
2019-01-11T10:36:26.486Z,3.82
2019-01-11T10:42:21.496Z,2.63
2019-01-11T10:48:16.495Z,2.82
2019-01-11T10:54:11.507Z,3.07
2019-01-11T11:00:06.561Z,2.67
2019-01-11T11:06:01.552Z,2.79
2019-01-11T11:11:56.560Z,3.2
2019-01-11T11:17:51.549Z,2.33
2019-01-11T11:23:46.527Z,2.63
2019-01-11T11:29:41.535Z,2.99
2019-01-11T11:35:36.509Z,2.74
2019-01-11T11:41:31.524Z,2.56
2019-01-11T11:47:26.524Z,3.14
2019-01-11T11:53:21.532Z,3.48
2019-01-11T11:59:16.522Z,3.11
2019-01-11T12:05:11.568Z,2.93
2019-01-11T12:11:06.538Z,3.4
2019-01-11T12:17:01.540Z,4.25
2019-01-11T12:22:56.584Z,2.89
2019-01-11T12:28:51.625Z,3.42
2019-01-11T12:34:46.545Z,2.93
2019-01-11T12:40:41.551Z,2.76
2019-01-11T12:46:36.554Z,2.7
2019-01-11T12:52:31.628Z,3.13
2019-01-11T12:58:26.570Z,4.13
2019-01-11T13:04:21.559Z,4.7
2019-01-11T13:10:16.561Z,3.95
2019-01-11T13:16:11.564Z,4.45
2019-01-11T13:22:06.583Z,5.19
2019-01-11T13:28:01.561Z,3.32
2019-01-11T13:33:56.631Z,3.24
2019-01-11T13:39:51.631Z,3.42
2019-01-11T13:45:46.601Z,3.33
2019-01-11T13:51:41.610Z,2.71
2019-01-11T13:57:36.609Z,3.16
2019-01-11T14:03:31.597Z,3.47
2019-01-11T14:09:26.610Z,2.79
2019-01-11T14:15:21.617Z,3.26
2019-01-11T14:21:16.603Z,3.29
2019-01-11T14:27:11.636Z,10.35
2019-01-11T14:33:06.608Z,3.57
2019-01-11T14:39:01.604Z,6.03
2019-01-11T14:44:56.700Z,3.76
2019-01-11T14:50:51.628Z,4.29
2019-01-11T14:56:46.645Z,3.17
2019-01-11T15:02:41.637Z,3.53
2019-01-11T15:08:37.087Z,4.37
2019-01-11T15:14:31.670Z,3.13
2019-01-11T15:20:26.703Z,8.19
2019-01-11T15:26:21.640Z,6.89
2019-01-11T15:32:16.662Z,3.7
2019-01-11T15:38:11.640Z,3.88
2019-01-11T15:44:06.645Z,4.61
2019-01-11T15:50:01.649Z,4.43
2019-01-11T15:55:56.653Z,4.61
2019-01-11T16:01:51.712Z,5.29
2019-01-11T16:07:46.666Z,4.8
2019-01-11T16:13:41.664Z,6.62
2019-01-11T16:19:36.659Z,5.71
2019-01-11T16:25:31.747Z,4.97
2019-01-11T16:31:26.676Z,6.17
2019-01-11T16:37:21.701Z,5.58
2019-01-11T16:43:16.714Z,6.72
2019-01-11T16:49:11.712Z,6.37
2019-01-11T16:55:06.695Z,6.99
2019-01-11T17:01:01.690Z,6.34
2019-01-11T17:06:56.717Z,10.63
2019-01-11T17:12:51.732Z,6.24
2019-01-11T17:18:46.706Z,5.99
2019-01-11T17:24:41.717Z,6.5
2019-01-11T17:30:36.747Z,5.57
2019-01-11T17:36:31.743Z,5.89
2019-01-11T17:42:26.724Z,7.86
2019-01-11T17:48:21.722Z,16.31
2019-01-11T17:54:16.751Z,17.04
2019-01-11T18:00:11.720Z,15.25
2019-01-11T18:06:06.718Z,16
2019-01-11T18:12:01.716Z,14
2019-01-11T18:17:56.730Z,19.85
2019-01-11T18:23:51.735Z,22.26
2019-01-11T18:29:47.594Z,22.52
2019-01-11T18:35:41.740Z,20.01
2019-01-11T18:41:36.750Z,25.87
2019-01-11T18:47:31.748Z,21.8
2019-01-11T18:53:26.784Z,19.34
2019-01-11T18:59:21.743Z,26.09
2019-01-11T19:05:16.754Z,20.33
2019-01-11T19:11:11.747Z,19.54
2019-01-11T19:17:06.777Z,24
2019-01-11T19:23:01.830Z,16.65
2019-01-11T19:28:56.826Z,16
2019-01-11T19:34:51.775Z,34.02
2019-01-11T19:40:46.778Z,6.97
2019-01-11T19:46:42.437Z,12.78
2019-01-11T19:52:36.764Z,13.09
2019-01-11T19:58:31.887Z,12.94
2019-01-11T20:04:26.790Z,14.57
2019-01-11T20:10:21.797Z,32.92
2019-01-11T20:16:16.821Z,34.05
2019-01-11T20:22:11.800Z,33.86
2019-01-11T20:28:06.783Z,51.37
2019-01-11T20:34:01.804Z,33.97
2019-01-11T20:39:56.798Z,26.16
2019-01-11T20:45:51.810Z,27.96
2019-01-11T20:51:46.815Z,18.46
2019-01-11T20:57:41.851Z,19.71
2019-01-11T21:03:36.815Z,14.04
2019-01-11T21:09:31.802Z,12.25
2019-01-11T21:15:26.834Z,14.44
2019-01-11T21:21:21.842Z,16.63
2019-01-11T21:27:16.833Z,15.27
2019-01-11T21:33:11.828Z,14.58
2019-01-11T21:39:06.823Z,11.34
2019-01-11T21:45:01.870Z,11.98
2019-01-11T21:50:56.847Z,31.57
2019-01-11T21:56:51.842Z,18.22
2019-01-11T22:02:46.851Z,12.67
2019-01-11T22:08:41.886Z,12.2
2019-01-11T22:14:36.866Z,11.43
2019-01-11T22:20:31.864Z,17.91
2019-01-11T22:26:26.876Z,19.36
2019-01-11T22:32:21.854Z,16.51
2019-01-11T22:38:16.876Z,16.35
2019-01-11T22:44:11.865Z,16.47
2019-01-11T22:50:06.869Z,17.09
2019-01-11T22:56:01.861Z,19.48
2019-01-11T23:01:56.887Z,34.25
2019-01-11T23:07:51.886Z,23.18
2019-01-11T23:13:46.875Z,22.99
2019-01-11T23:19:41.880Z,16.41
2019-01-11T23:25:36.874Z,9.5
2019-01-11T23:31:31.896Z,6.94
2019-01-11T23:37:26.927Z,11.28
2019-01-11T23:43:21.897Z,12.56
2019-01-11T23:49:16.902Z,12.93
2019-01-11T23:55:11.918Z,17.44
